Shin Chun — VRFD2 — position and weather

sailwx.info

Track history (hours):
 
Tides and Currents Weather Stations Pressure Air Temp Water Temp Dewpoint Dewpoint Depression Visibility Wind Speed Wind Dir Waves Ship Positions

Shin Chun

Last reported at 2014-Sep-02 21:23 UTC. Time now 2014-Sep-02 21:40 UTC.
Position N 25°17' E 119°39'.

Length 152 m; draft 6 m.

Type: Cargo ship. MMSI: 477218300.

Date/timePositionNaut miles runAvg speedWind from/ knotsBaromVisibWave heightAir tempDewpointWater temp
2014-Sep-02 21:23N 25°17' E 119°39'7 3.4
2014-Sep-02 19:22N 25°12' E 119°44'1213.6
2014-Sep-02 18:29N 25°02' E 119°51'1313.6
2014-Sep-02 17:33N 24°52' E 119°60'1413.6
2014-Sep-02 16:33N 24°41' E 120°08'1513.6
2014-Sep-02 15:29N 24°29' E 120°17'1313.8
2014-Sep-02 14:33N 24°20' E 120°27'5 1.6
2014-Sep-02 11:23N 24°16' E 120°31'0 0.0
2014-Sep-02 06:23N 24°16' E 120°31'0 0.1
2014-Sep-02 05:33N 24°16' E 120°31'11 9.2
2014-Sep-02 04:21N 24°12' E 120°19'3014.7
2014-Sep-02 02:20N 23°48' E 120°01'1114.2
2014-Sep-02 01:33N 23°38' E 119°55'4912.3
2014-Sep-01 21:32N 22°49' E 120°03'1212.3
2014-Sep-01 20:33N 22°39' E 120°11'8 8.3
2014-Sep-01 19:33N 22°35' E 120°18'0 0.0
2014-Sep-01 18:31N 22°35' E 120°18'0 0.0
2014-Sep-01 17:31N 22°35' E 120°18'0 0.0
2014-Sep-01 16:31N 22°35' E 120°18'0 0.0
2014-Sep-01 15:31N 22°35' E 120°18'0 0.0
2014-Sep-01 14:25N 22°35' E 120°18'0 0.0
2014-Sep-01 13:31N 22°35' E 120°18'0 0.0
2014-Sep-01 12:31N 22°35' E 120°18'0 0.0
2014-Sep-01 11:28N 22°35' E 120°18'0 0.0
2014-Sep-01 10:28N 22°35' E 120°18'0 0.0
2014-Sep-01 09:28N 22°35' E 120°18'0 0.0
2014-Sep-01 08:28N 22°35' E 120°18'0 0.0
2014-Sep-01 07:28N 22°35' E 120°18'0 0.0
2014-Sep-01 06:28N 22°35' E 120°18'0 0.0
2014-Sep-01 05:28N 22°35' E 120°18'1 0.6
2014-Sep-01 04:33N 22°35' E 120°18'8 8.1
2014-Sep-01 03:33N 22°39' E 120°10'1413.7
2014-Sep-01 02:33N 22°46' E 119°58'1514.9
2014-Sep-01 01:33N 22°55' E 119°44'9713.9
2014-Aug-31 18:33N 24°03' E 118°28'1312.9
2014-Aug-31 17:33N 24°12' E 118°19'1312.6
2014-Aug-31 16:33N 24°21' E 118°09'10 9.7
2014-Aug-31 15:34N 24°30' E 118°04'1 1.4
2014-Aug-31 14:33N 24°31' E 118°05'0 0.1
2014-Aug-31 13:32N 24°31' E 118°05'0 0.1
2014-Aug-31 12:32N 24°31' E 118°05'0 0.0
2014-Aug-31 11:32N 24°31' E 118°05'0 0.1
2014-Aug-31 10:32N 24°31' E 118°05'0 0.0
2014-Aug-31 09:32N 24°31' E 118°05'0 0.1
2014-Aug-31 08:33N 24°31' E 118°05'0 0.0
2014-Aug-31 07:33N 24°31' E 118°05'0 0.0
2014-Aug-31 06:32N 24°31' E 118°05'0 0.0
2014-Aug-31 05:32N 24°31' E 118°05'0 0.0
2014-Aug-31 04:32N 24°31' E 118°05'0 0.0
2014-Aug-31 03:32N 24°31' E 118°05'0 0.1
2014-Aug-31 02:32N 24°31' E 118°05'0 0.0
2014-Aug-31 01:32N 24°31' E 118°05'1 1.0
2014-Aug-31 00:33N 24°30' E 118°04'9 9.4
2014-Aug-30 23:33N 24°22' E 118°09'1111.2
2014-Aug-30 22:33N 24°13' E 118°17'4 4.3
2014-Aug-30 21:33N 24°10' E 118°20'10 9.5
2014-Aug-30 20:33N 24°04' E 118°28'1413.1
2014-Aug-30 19:31N 23°54' E 118°38'9914.3
2014-Aug-30 12:33N 22°49' E 119°60'7 6.8
2014-Aug-30 11:33N 22°45' E 120°06'1 1.1
2014-Aug-30 10:32N 22°45' E 120°05'1 1.0
2014-Aug-30 09:33N 22°44' E 120°04'0 0.5
2014-Aug-30 08:33N 22°44' E 120°04'9 8.8
2014-Aug-30 07:33N 22°39' E 120°11'8 7.3
2014-Aug-30 06:30N 22°35' E 120°18'0 0.0
2014-Aug-30 05:30N 22°35' E 120°18'0 0.0
2014-Aug-30 04:30N 22°35' E 120°18'0 0.0
2014-Aug-30 03:18N 22°35' E 120°18'0 0.0
2014-Aug-30 02:18N 22°35' E 120°18'0 0.0
2014-Aug-30 01:30N 22°35' E 120°18'0 0.0
2014-Aug-30 00:33N 22°35' E 120°18'4 4.4
2014-Aug-29 23:33N 22°37' E 120°14'6 5.7
2014-Aug-29 22:33N 22°40' E 120°09'13 6.4
2014-Aug-29 20:34N 22°51' E 120°02'19512.1
2014-Aug-29 04:31N 26°05' E 119°46'1010.5
2014-Aug-29 03:33N 26°08' E 119°35'9 7.9
2014-Aug-29 02:23N 26°00' E 119°29'0 0.0
2014-Aug-29 01:29N 26°00' E 119°29'0 0.0
2014-Aug-29 00:29N 26°00' E 119°29'0 0.0
2014-Aug-28 23:29N 26°00' E 119°29'0 0.0
2014-Aug-28 22:29N 26°00' E 119°29'0 0.0
2014-Aug-28 21:29N 26°00' E 119°29'0 0.0
2014-Aug-28 20:29N 26°00' E 119°29'0 0.0
2014-Aug-28 19:29N 26°00' E 119°29'0 0.0
2014-Aug-28 18:29N 26°00' E 119°29'0 0.0
2014-Aug-28 17:23N 26°00' E 119°29'0 0.0
2014-Aug-28 16:29N 26°00' E 119°29'0 0.0
2014-Aug-28 15:29N 26°00' E 119°29'0 0.0
2014-Aug-28 14:23N 26°00' E 119°29'0 0.0
2014-Aug-28 13:29N 26°00' E 119°29'0 0.0
2014-Aug-28 12:29N 26°00' E 119°29'0 0.0
2014-Aug-28 11:29N 26°00' E 119°29'0 0.0
2014-Aug-28 10:29N 26°00' E 119°29'0 0.0
2014-Aug-28 09:22N 26°00' E 119°29'0 0.0
2014-Aug-28 08:16N 26°00' E 119°29'0 0.0
2014-Aug-28 07:28N 26°00' E 119°29'0 0.0
2014-Aug-28 06:22N 26°00' E 119°29'0 0.0
2014-Aug-28 05:28N 26°00' E 119°29'0 0.1
2014-Aug-28 04:34N 26°00' E 119°29'13 9.0
2014-Aug-28 03:08N 26°06' E 119°42'6 9.0
2014-Aug-28 02:29N 26°05' E 119°48'5 0.4
2014-Aug-27 14:16N 26°01' E 119°52'3813.4
2014-Aug-27 11:28N 25°24' E 119°59'1514.9
2014-Aug-27 10:28N 25°14' E 119°46'1314.0
2014-Aug-27 09:32N 25°19' E 119°32'1414.3
2014-Aug-27 08:33N 25°24' E 119°18'1 0.3
2014-Aug-27 04:22N 25°25' E 119°17'0 0.0
2014-Aug-27 03:28N 25°25' E 119°17'0 0.0
2014-Aug-27 02:33N 25°25' E 119°17'9 8.6
2014-Aug-27 01:33N 25°20' E 119°25'13 2.1
2014-Aug-26 19:25N 25°17' E 119°39'0 0.1
2014-Aug-26 17:07N 25°17' E 119°39'0 0.2
2014-Aug-26 16:19N 25°17' E 119°39'6713.3
2014-Aug-26 11:20N 24°23' E 120°22'98 6.2
2014-Aug-25 19:33N 22°47' E 120°05'1313.0
2014-Aug-25 18:33N 22°37' E 120°15'4 4.1
2014-Aug-25 17:32N 22°35' E 120°18'0 0.0
2014-Aug-25 16:32N 22°35' E 120°18'0 0.0
2014-Aug-25 15:32N 22°35' E 120°18'0 0.0
2014-Aug-25 14:26N 22°35' E 120°18'0 0.0
2014-Aug-25 13:08N 22°35' E 120°18'0 0.0
2014-Aug-25 12:14N 22°35' E 120°18'0 0.0
2014-Aug-25 11:20N 22°35' E 120°18'0 0.0
2014-Aug-25 10:20N 22°35' E 120°18'3 4.1
2014-Aug-25 09:33N 22°37' E 120°16'3 2.9
2014-Aug-25 08:28N 22°39' E 120°13'0 0.0
2014-Aug-25 07:22N 22°39' E 120°13'0 0.1
2014-Aug-25 06:28N 22°39' E 120°13'0 0.0
2014-Aug-25 05:28N 22°39' E 120°13'0 0.1
2014-Aug-25 04:25N 22°39' E 120°13'0 0.0
2014-Aug-25 03:31N 22°39' E 120°13'0 0.0
2014-Aug-25 02:27N 22°39' E 120°13'0 0.1
2014-Aug-25 01:27N 22°39' E 120°13'0 0.5
2014-Aug-25 00:33N 22°38' E 120°13'1312.6
2014-Aug-24 23:33N 22°44' E 120°01'1313.0
2014-Aug-24 22:33N 22°52' E 119°49'11913.1
2014-Aug-24 13:29N 24°15' E 118°16'1111.6
2014-Aug-24 12:31N 24°23' E 118°07'8 8.3
2014-Aug-24 11:33N 24°30' E 118°04'1 1.0
2014-Aug-24 10:32N 24°31' E 118°05'0 0.0
2014-Aug-24 09:32N 24°31' E 118°05'0 0.0
2014-Aug-24 08:32N 24°31' E 118°05'0 0.0
2014-Aug-24 07:32N 24°31' E 118°05'0 0.0
2014-Aug-24 06:26N 24°31' E 118°05'0 0.0
2014-Aug-24 05:32N 24°31' E 118°05'0 0.0
2014-Aug-24 04:32N 24°31' E 118°05'0 0.0
2014-Aug-24 03:32N 24°31' E 118°05'0 0.0
2014-Aug-24 02:29N 24°31' E 118°05'0 0.0
2014-Aug-24 01:32N 24°31' E 118°05'0 0.0
2014-Aug-24 00:32N 24°31' E 118°05'0 0.1
2014-Aug-23 23:33N 24°31' E 118°05'8 8.5
2014-Aug-23 22:33N 24°23' E 118°08'1313.5
2014-Aug-23 21:33N 24°13' E 118°18'  
Track history (hours):
 
Tides and Currents Weather Stations Pressure Air Temp Water Temp Dewpoint Dewpoint Depression Visibility Wind Speed Wind Dir Waves Ship Positions

Shin Chun

Last reported at 2014-Sep-02 21:23 UTC. Time now 2014-Sep-02 21:40 UTC.
Position N 25°17' E 119°39'.

Length 152 m; draft 6 m.

Type: Cargo ship. MMSI: 477218300.

Date/timePositionNaut miles runAvg speedWind from/ knotsBaromVisibWave heightAir tempDewpointWater temp
2014-Sep-02 21:23N 25°17' E 119°39'7 3.4
2014-Sep-02 19:22N 25°12' E 119°44'1213.6
2014-Sep-02 18:29N 25°02' E 119°51'1313.6
2014-Sep-02 17:33N 24°52' E 119°60'1413.6
2014-Sep-02 16:33N 24°41' E 120°08'1513.6
2014-Sep-02 15:29N 24°29' E 120°17'1313.8
2014-Sep-02 14:33N 24°20' E 120°27'5 1.6
2014-Sep-02 11:23N 24°16' E 120°31'0 0.0
2014-Sep-02 06:23N 24°16' E 120°31'0 0.1
2014-Sep-02 05:33N 24°16' E 120°31'11 9.2
2014-Sep-02 04:21N 24°12' E 120°19'3014.7
2014-Sep-02 02:20N 23°48' E 120°01'1114.2
2014-Sep-02 01:33N 23°38' E 119°55'4912.3
2014-Sep-01 21:32N 22°49' E 120°03'1212.3
2014-Sep-01 20:33N 22°39' E 120°11'8 8.3
2014-Sep-01 19:33N 22°35' E 120°18'0 0.0
2014-Sep-01 18:31N 22°35' E 120°18'0 0.0
2014-Sep-01 17:31N 22°35' E 120°18'0 0.0
2014-Sep-01 16:31N 22°35' E 120°18'0 0.0
2014-Sep-01 15:31N 22°35' E 120°18'0 0.0
2014-Sep-01 14:25N 22°35' E 120°18'0 0.0
2014-Sep-01 13:31N 22°35' E 120°18'0 0.0
2014-Sep-01 12:31N 22°35' E 120°18'0 0.0
2014-Sep-01 11:28N 22°35' E 120°18'0 0.0
2014-Sep-01 10:28N 22°35' E 120°18'0 0.0
2014-Sep-01 09:28N 22°35' E 120°18'0 0.0
2014-Sep-01 08:28N 22°35' E 120°18'0 0.0
2014-Sep-01 07:28N 22°35' E 120°18'0 0.0
2014-Sep-01 06:28N 22°35' E 120°18'0 0.0
2014-Sep-01 05:28N 22°35' E 120°18'1 0.6
2014-Sep-01 04:33N 22°35' E 120°18'8 8.1
2014-Sep-01 03:33N 22°39' E 120°10'1413.7
2014-Sep-01 02:33N 22°46' E 119°58'1514.9
2014-Sep-01 01:33N 22°55' E 119°44'9713.9
2014-Aug-31 18:33N 24°03' E 118°28'1312.9
2014-Aug-31 17:33N 24°12' E 118°19'1312.6
2014-Aug-31 16:33N 24°21' E 118°09'10 9.7
2014-Aug-31 15:34N 24°30' E 118°04'1 1.4
2014-Aug-31 14:33N 24°31' E 118°05'0 0.1
2014-Aug-31 13:32N 24°31' E 118°05'0 0.1
2014-Aug-31 12:32N 24°31' E 118°05'0 0.0
2014-Aug-31 11:32N 24°31' E 118°05'0 0.1
2014-Aug-31 10:32N 24°31' E 118°05'0 0.0
2014-Aug-31 09:32N 24°31' E 118°05'0 0.1
2014-Aug-31 08:33N 24°31' E 118°05'0 0.0
2014-Aug-31 07:33N 24°31' E 118°05'0 0.0
2014-Aug-31 06:32N 24°31' E 118°05'0 0.0
2014-Aug-31 05:32N 24°31' E 118°05'0 0.0
2014-Aug-31 04:32N 24°31' E 118°05'0 0.0
2014-Aug-31 03:32N 24°31' E 118°05'0 0.1
2014-Aug-31 02:32N 24°31' E 118°05'0 0.0
2014-Aug-31 01:32N 24°31' E 118°05'1 1.0
2014-Aug-31 00:33N 24°30' E 118°04'9 9.4
2014-Aug-30 23:33N 24°22' E 118°09'1111.2
2014-Aug-30 22:33N 24°13' E 118°17'4 4.3
2014-Aug-30 21:33N 24°10' E 118°20'10 9.5
2014-Aug-30 20:33N 24°04' E 118°28'1413.1
2014-Aug-30 19:31N 23°54' E 118°38'9914.3
2014-Aug-30 12:33N 22°49' E 119°60'7 6.8
2014-Aug-30 11:33N 22°45' E 120°06'1 1.1
2014-Aug-30 10:32N 22°45' E 120°05'1 1.0
2014-Aug-30 09:33N 22°44' E 120°04'0 0.5
2014-Aug-30 08:33N 22°44' E 120°04'9 8.8
2014-Aug-30 07:33N 22°39' E 120°11'8 7.3
2014-Aug-30 06:30N 22°35' E 120°18'0 0.0
2014-Aug-30 05:30N 22°35' E 120°18'0 0.0
2014-Aug-30 04:30N 22°35' E 120°18'0 0.0
2014-Aug-30 03:18N 22°35' E 120°18'0 0.0
2014-Aug-30 02:18N 22°35' E 120°18'0 0.0
2014-Aug-30 01:30N 22°35' E 120°18'0 0.0
2014-Aug-30 00:33N 22°35' E 120°18'4 4.4
2014-Aug-29 23:33N 22°37' E 120°14'6 5.7
2014-Aug-29 22:33N 22°40' E 120°09'13 6.4
2014-Aug-29 20:34N 22°51' E 120°02'19512.1
2014-Aug-29 04:31N 26°05' E 119°46'1010.5
2014-Aug-29 03:33N 26°08' E 119°35'9 7.9
2014-Aug-29 02:23N 26°00' E 119°29'0 0.0
2014-Aug-29 01:29N 26°00' E 119°29'0 0.0
2014-Aug-29 00:29N 26°00' E 119°29'0 0.0
2014-Aug-28 23:29N 26°00' E 119°29'0 0.0
2014-Aug-28 22:29N 26°00' E 119°29'0 0.0
2014-Aug-28 21:29N 26°00' E 119°29'0 0.0
2014-Aug-28 20:29N 26°00' E 119°29'0 0.0
2014-Aug-28 19:29N 26°00' E 119°29'0 0.0
2014-Aug-28 18:29N 26°00' E 119°29'0 0.0
2014-Aug-28 17:23N 26°00' E 119°29'0 0.0
2014-Aug-28 16:29N 26°00' E 119°29'0 0.0
2014-Aug-28 15:29N 26°00' E 119°29'0 0.0
2014-Aug-28 14:23N 26°00' E 119°29'0 0.0
2014-Aug-28 13:29N 26°00' E 119°29'0 0.0
2014-Aug-28 12:29N 26°00' E 119°29'0 0.0
2014-Aug-28 11:29N 26°00' E 119°29'0 0.0
2014-Aug-28 10:29N 26°00' E 119°29'0 0.0
2014-Aug-28 09:22N 26°00' E 119°29'0 0.0
2014-Aug-28 08:16N 26°00' E 119°29'0 0.0
2014-Aug-28 07:28N 26°00' E 119°29'0 0.0
2014-Aug-28 06:22N 26°00' E 119°29'0 0.0
2014-Aug-28 05:28N 26°00' E 119°29'0 0.1
2014-Aug-28 04:34N 26°00' E 119°29'13 9.0
2014-Aug-28 03:08N 26°06' E 119°42'6 9.0
2014-Aug-28 02:29N 26°05' E 119°48'5 0.4
2014-Aug-27 14:16N 26°01' E 119°52'3813.4
2014-Aug-27 11:28N 25°24' E 119°59'1514.9
2014-Aug-27 10:28N 25°14' E 119°46'1314.0
2014-Aug-27 09:32N 25°19' E 119°32'1414.3
2014-Aug-27 08:33N 25°24' E 119°18'1 0.3
2014-Aug-27 04:22N 25°25' E 119°17'0 0.0
2014-Aug-27 03:28N 25°25' E 119°17'0 0.0
2014-Aug-27 02:33N 25°25' E 119°17'9 8.6
2014-Aug-27 01:33N 25°20' E 119°25'13 2.1
2014-Aug-26 19:25N 25°17' E 119°39'0 0.1
2014-Aug-26 17:07N 25°17' E 119°39'0 0.2
2014-Aug-26 16:19N 25°17' E 119°39'6713.3
2014-Aug-26 11:20N 24°23' E 120°22'98 6.2
2014-Aug-25 19:33N 22°47' E 120°05'1313.0
2014-Aug-25 18:33N 22°37' E 120°15'4 4.1
2014-Aug-25 17:32N 22°35' E 120°18'0 0.0
2014-Aug-25 16:32N 22°35' E 120°18'0 0.0
2014-Aug-25 15:32N 22°35' E 120°18'0 0.0
2014-Aug-25 14:26N 22°35' E 120°18'0 0.0
2014-Aug-25 13:08N 22°35' E 120°18'0 0.0
2014-Aug-25 12:14N 22°35' E 120°18'0 0.0
2014-Aug-25 11:20N 22°35' E 120°18'0 0.0
2014-Aug-25 10:20N 22°35' E 120°18'3 4.1
2014-Aug-25 09:33N 22°37' E 120°16'3 2.9
2014-Aug-25 08:28N 22°39' E 120°13'0 0.0
2014-Aug-25 07:22N 22°39' E 120°13'0 0.1
2014-Aug-25 06:28N 22°39' E 120°13'0 0.0
2014-Aug-25 05:28N 22°39' E 120°13'0 0.1
2014-Aug-25 04:25N 22°39' E 120°13'0 0.0
2014-Aug-25 03:31N 22°39' E 120°13'0 0.0
2014-Aug-25 02:27N 22°39' E 120°13'0 0.1
2014-Aug-25 01:27N 22°39' E 120°13'0 0.5
2014-Aug-25 00:33N 22°38' E 120°13'1312.6
2014-Aug-24 23:33N 22°44' E 120°01'1313.0
2014-Aug-24 22:33N 22°52' E 119°49'11913.1
2014-Aug-24 13:29N 24°15' E 118°16'1111.6
2014-Aug-24 12:31N 24°23' E 118°07'8 8.3
2014-Aug-24 11:33N 24°30' E 118°04'1 1.0
2014-Aug-24 10:32N 24°31' E 118°05'0 0.0
2014-Aug-24 09:32N 24°31' E 118°05'0 0.0
2014-Aug-24 08:32N 24°31' E 118°05'0 0.0
2014-Aug-24 07:32N 24°31' E 118°05'0 0.0
2014-Aug-24 06:26N 24°31' E 118°05'0 0.0
2014-Aug-24 05:32N 24°31' E 118°05'0 0.0
2014-Aug-24 04:32N 24°31' E 118°05'0 0.0
2014-Aug-24 03:32N 24°31' E 118°05'0 0.0
2014-Aug-24 02:29N 24°31' E 118°05'0 0.0
2014-Aug-24 01:32N 24°31' E 118°05'0 0.0
2014-Aug-24 00:32N 24°31' E 118°05'0 0.1
2014-Aug-23 23:33N 24°31' E 118°05'8 8.5
2014-Aug-23 22:33N 24°23' E 118°08'1313.5
2014-Aug-23 21:33N 24°13' E 118°18'  

Dump ship's entire track history